Time;durP1;ratioP1;P1;durP2;ratioP2;P2;SDS_P1;SDS_P2;PMS_P1;PMS_P2;Temp;Humidity;BMP_temperature;BMP_pressure;BME280_temperature;BME280_humidity;BME280_pressure;Samples;Min_cycle;Max_cycle;Signal;HPM_P1;HPM_P2
2021/03/13 00:01:24;;;;;;;18.20;4.13;;;;;;;;;;5070258;28;20016;-58
2021/03/13 00:03:49;;;;;;;20.47;5.50;;;;;;;;;;5070520;28;20028;-58
2021/03/13 00:06:14;;;;;;;13.50;4.33;;;;;;;;;;5069708;28;20515;-59
2021/03/13 00:08:40;;;;;;;17.13;4.00;;;;;;;;;;5053029;28;20333;-58
2021/03/13 00:11:06;;;;;;;19.00;4.53;;;;;;;;;;5053614;28;20452;-59
2021/03/13 00:13:32;;;;;;;18.45;4.40;;;;;;;;;;5070217;28;20021;-59
2021/03/13 00:15:57;;;;;;;22.53;7.23;;;;;;;;;;5051367;28;20043;-60
2021/03/13 00:18:23;;;;;;;26.83;4.57;;;;;;;;;;5069705;28;20376;-59
2021/03/13 00:20:48;;;;;;;23.40;5.60;;;;;;;;;;5070640;28;20067;-57
2021/03/13 00:23:13;;;;;;;22.07;4.90;;;;;;;;;;5070541;28;20403;-58
2021/03/13 00:25:39;;;;;;;21.03;4.57;;;;;;;;;;5069669;28;20346;-60
2021/03/13 00:28:05;;;;;;;23.50;4.13;;;;;;;;;;5052223;28;20432;-59
2021/03/13 00:30:31;;;;;;;17.97;4.10;;;;;;;;;;5051531;28;20407;-58
2021/03/13 00:32:58;;;;;;;22.25;4.53;;;;;;;;;;5069939;28;20107;-58
2021/03/13 00:35:24;;;;;;;26.33;3.88;;;;;;;;;;5069639;28;20092;-58
2021/03/13 00:37:50;;;;;;;19.77;3.38;;;;;;;;;;5069942;28;20089;-57
2021/03/13 00:40:16;;;;;;;14.87;3.90;;;;;;;;;;5052320;28;20040;-58
2021/03/13 00:42:42;;;;;;;13.80;2.75;;;;;;;;;;5067044;28;20289;-57
2021/03/13 00:45:09;;;;;;;12.13;2.95;;;;;;;;;;5070014;28;20028;-59
2021/03/13 00:47:34;;;;;;;6.38;2.40;;;;;;;;;;5069194;28;20067;-58
2021/03/13 00:49:59;;;;;;;16.97;4.57;;;;;;;;;;5051725;28;20067;-58
2021/03/13 00:52:25;;;;;;;14.67;3.23;;;;;;;;;;5069417;28;20068;-57
2021/03/13 00:54:50;;;;;;;13.30;4.50;;;;;;;;;;5066679;28;20398;-58
2021/03/13 00:57:16;;;;;;;19.27;4.73;;;;;;;;;;5073950;28;20484;-58
2021/03/13 00:59:41;;;;;;;22.53;6.43;;;;;;;;;;5072013;28;20044;-58
2021/03/13 01:02:06;;;;;;;18.93;5.70;;;;;;;;;;5041900;28;20041;-58
2021/03/13 01:04:32;;;;;;;19.25;5.32;;;;;;;;;;5054944;28;20128;-59
2021/03/13 01:06:58;;;;;;;18.67;6.33;;;;;;;;;;5072516;28;20037;-58
2021/03/13 01:09:24;;;;;;;18.73;7.50;;;;;;;;;;5073035;28;20039;-59
2021/03/13 01:11:49;;;;;;;20.92;7.05;;;;;;;;;;5072605;28;20099;-59
2021/03/13 01:14:15;;;;;;;21.53;8.27;;;;;;;;;;5072284;28;20370;-59
2021/03/13 01:16:44;;;;;;;18.15;8.63;;;;;;;;;;5073150;28;20369;-59
2021/03/13 01:19:10;;;;;;;22.17;7.27;;;;;;;;;;5071881;28;20051;-58
2021/03/13 01:21:36;;;;;;;24.45;7.55;;;;;;;;;;5071473;28;20029;-59
2021/03/13 01:24:05;;;;;;;17.67;6.20;;;;;;;;;;5072347;28;20143;-59
2021/03/13 01:26:36;;;;;;;20.73;6.10;;;;;;;;;;5072911;28;20099;-57
2021/03/13 01:29:04;;;;;;;22.85;6.63;;;;;;;;;;5071774;28;20033;-58
2021/03/13 01:31:38;;;;;;;13.15;5.28;;;;;;;;;;5071659;28;20840;-59
2021/03/13 01:34:04;;;;;;;19.38;6.70;;;;;;;;;;5073261;28;20032;-59
2021/03/13 01:36:31;;;;;;;;;;;;;;;;;;5055244;28;20024;-59
2021/03/13 01:38:56;;;;;;;22.60;8.43;;;;;;;;;;5073258;28;19912;-59
2021/03/13 01:41:23;;;;;;;24.55;5.97;;;;;;;;;;5054363;28;20420;-59
2021/03/13 01:43:48;;;;;;;17.83;4.60;;;;;;;;;;5073180;28;20036;-58
2021/03/13 01:46:14;;;;;;;17.15;6.00;;;;;;;;;;5054956;28;20119;-58
2021/03/13 01:48:42;;;;;;;13.83;4.93;;;;;;;;;;5071805;28;20518;-58
2021/03/13 01:51:11;;;;;;;12.50;5.05;;;;;;;;;;5055422;28;20036;-57
2021/03/13 01:53:39;;;;;;;19.55;5.20;;;;;;;;;;5070537;28;20826;-57
2021/03/13 01:56:04;;;;;;;20.23;5.77;;;;;;;;;;5054928;28;20107;-57
2021/03/13 01:58:34;;;;;;;18.20;6.63;;;;;;;;;;5053707;28;20676;-59
2021/03/13 02:01:06;;;;;;;18.52;5.63;;;;;;;;;;5037649;28;20036;-58
2021/03/13 02:03:31;;;;;;;17.58;6.35;;;;;;;;;;5054089;28;20090;-58
2021/03/13 02:05:57;;;;;;;27.02;8.48;;;;;;;;;;5054745;28;20094;-58
2021/03/13 02:08:26;;;;;;;20.97;6.60;;;;;;;;;;5072074;28;20436;-58
2021/03/13 02:11:10;;;;;;;20.02;9.35;;;;;;;;;;5054614;28;20418;-56
2021/03/13 02:13:49;;;;;;;26.05;9.40;;;;;;;;;;5052829;28;20121;-56
2021/03/13 02:16:21;;;;;;;18.60;6.65;;;;;;;;;;5073042;28;20029;-60
2021/03/13 02:18:59;;;;;;;13.15;5.15;;;;;;;;;;5054049;28;20036;-58
2021/03/13 02:21:24;;;;;;;22.83;6.20;;;;;;;;;;5051774;28;20491;-59
2021/03/13 02:24:03;;;;;;;16.80;7.35;;;;;;;;;;5054340;28;20112;-57
2021/03/13 02:26:28;;;;;;;15.50;5.45;;;;;;;;;;5053749;28;20058;-56
2021/03/13 02:29:32;;;;;;;11.32;3.63;;;;;;;;;;5053894;28;20074;-57
2021/03/13 02:32:01;;;;;;;13.43;5.30;;;;;;;;;;5054516;28;20044;-58
2021/03/13 02:34:28;;;;;;;17.63;5.13;;;;;;;;;;5053382;28;20461;-57
2021/03/13 02:36:56;;;;;;;16.17;4.07;;;;;;;;;;5054462;28;20028;-55
2021/03/13 02:39:25;;;;;;;26.98;5.68;;;;;;;;;;5053699;28;20036;-57
2021/03/13 02:41:59;;;;;;;14.90;5.65;;;;;;;;;;5051904;28;20438;-58
2021/03/13 02:44:24;;;;;;;14.55;4.45;;;;;;;;;;5053288;28;20149;-57
2021/03/13 02:46:55;;;;;;;18.60;4.85;;;;;;;;;;5053870;28;20338;-55
2021/03/13 02:49:28;;;;;;;7.93;4.03;;;;;;;;;;5053013;28;20412;-57
2021/03/13 02:52:06;;;;;;;14.95;4.03;;;;;;;;;;5053901;28;20082;-58
2021/03/13 02:54:33;;;;;;;14.23;3.92;;;;;;;;;;5052761;28;20040;-57
2021/03/13 02:56:59;;;;;;;14.80;5.18;;;;;;;;;;5053473;28;20062;-57
2021/03/13 02:59:26;;;;;;;12.80;4.60;;;;;;;;;;5052973;28;20138;-56
2021/03/13 03:01:53;;;;;;;18.20;4.63;;;;;;;;;;5069112;28;20036;-57
2021/03/13 03:04:19;;;;;;;12.30;4.95;;;;;;;;;;5071791;28;20032;-56
2021/03/13 03:06:49;;;;;;;16.25;5.03;;;;;;;;;;5052947;28;20063;-57
2021/03/13 03:09:15;;;;;;;11.68;4.68;;;;;;;;;;5071797;28;20032;-57
2021/03/13 03:11:47;;;;;;;14.95;6.32;;;;;;;;;;5037158;28;20086;-57
2021/03/13 03:14:15;;;;;;;12.57;4.80;;;;;;;;;;5053368;28;20036;-56
2021/03/13 03:16:42;;;;;;;23.88;5.35;;;;;;;;;;5052130;28;20037;-58
2021/03/13 03:19:08;;;;;;;21.30;4.93;;;;;;;;;;5036599;28;20484;-58
2021/03/13 03:21:40;;;;;;;22.17;5.68;;;;;;;;;;5052500;28;20029;-57
2021/03/13 03:24:07;;;;;;;20.85;5.55;;;;;;;;;;5076291;28;20369;-58
2021/03/13 03:26:33;;;;;;;19.92;4.85;;;;;;;;;;5052318;28;20365;-57
2021/03/13 03:28:59;;;;;;;16.70;5.40;;;;;;;;;;5052879;28;20094;-58
2021/03/13 03:31:24;;;;;;;13.07;4.40;;;;;;;;;;5052598;28;20553;-59
2021/03/13 03:33:50;;;;;;;21.52;4.63;;;;;;;;;;5070532;28;20048;-55
2021/03/13 03:36:17;;;;;;;16.10;5.00;;;;;;;;;;5052919;28;20499;-58
2021/03/13 03:38:46;;;;;;;23.25;4.93;;;;;;;;;;5052438;28;20024;-57
2021/03/13 03:41:17;;;;;;;18.80;4.85;;;;;;;;;;5050841;28;20076;-57
2021/03/13 03:43:53;;;;;;;12.20;4.45;;;;;;;;;;5052057;28;20039;-57
2021/03/13 03:46:24;;;;;;;22.30;5.75;;;;;;;;;;5050198;28;20086;-57
2021/03/13 03:48:50;;;;;;;20.15;4.72;;;;;;;;;;5052316;28;20423;-56
2021/03/13 03:51:24;;;;;;;20.00;4.35;;;;;;;;;;5052150;28;20094;-57
2021/03/13 03:54:04;;;;;;;13.63;3.78;;;;;;;;;;5052568;28;20487;-57
2021/03/13 03:56:29;;;;;;;8.50;4.13;;;;;;;;;;5068859;28;20035;-58
2021/03/13 03:58:55;;;;;;;16.40;4.10;;;;;;;;;;5070261;28;20028;-57
2021/03/13 04:01:23;;;;;;;10.18;3.78;;;;;;;;;;5072466;28;20032;-57
2021/03/13 04:03:51;;;;;;;14.45;4.60;;;;;;;;;;5067443;28;20396;-56
2021/03/13 04:06:17;;;;;;;15.80;4.85;;;;;;;;;;5070535;28;20025;-55
2021/03/13 04:08:43;;;;;;;12.95;4.97;;;;;;;;;;5068567;28;20032;-56
2021/03/13 04:11:19;;;;;;;15.75;4.40;;;;;;;;;;5070530;28;20020;-55
2021/03/13 04:13:45;;;;;;;10.35;3.53;;;;;;;;;;5068173;28;20449;-56
2021/03/13 04:16:11;;;;;;;;;;;;;;;;;;5069547;28;20032;-57
2021/03/13 04:18:36;;;;;;;20.10;4.60;;;;;;;;;;5049085;28;20249;-54
2021/03/13 04:21:02;;;;;;;18.50;4.00;;;;;;;;;;5069024;28;20059;-58
2021/03/13 04:23:28;;;;;;;14.57;4.10;;;;;;;;;;5069727;28;20536;-59
2021/03/13 04:25:53;;;;;;;16.83;4.27;;;;;;;;;;5070233;28;20124;-55
2021/03/13 04:28:19;;;;;;;7.03;3.65;;;;;;;;;;5069693;28;20413;-56
2021/03/13 04:30:45;;;;;;;11.60;3.38;;;;;;;;;;5069323;28;20337;-58
2021/03/13 04:33:11;;;;;;;16.83;3.42;;;;;;;;;;5069989;28;20468;-55
2021/03/13 04:35:36;;;;;;;11.23;3.53;;;;;;;;;;5068234;28;20040;-55
2021/03/13 04:38:02;;;;;;;8.60;3.93;;;;;;;;;;5068648;28;20032;-56
2021/03/13 04:40:28;;;;;;;14.27;3.53;;;;;;;;;;5049403;28;20337;-57
2021/03/13 04:42:54;;;;;;;12.68;3.83;;;;;;;;;;5069977;28;20358;-56
2021/03/13 04:45:19;;;;;;;14.57;4.78;;;;;;;;;;5069870;28;20124;-55
2021/03/13 04:47:46;;;;;;;9.93;2.97;;;;;;;;;;5068057;28;20059;-56
2021/03/13 04:50:13;;;;;;;7.85;3.38;;;;;;;;;;5069820;28;20032;-54
2021/03/13 04:52:38;;;;;;;8.00;3.03;;;;;;;;;;5069551;28;20045;-56
2021/03/13 04:55:04;;;;;;;12.27;3.60;;;;;;;;;;5069571;28;20067;-56
2021/03/13 04:57:29;;;;;;;12.50;3.78;;;;;;;;;;5069168;28;20063;-59
2021/03/13 04:59:54;;;;;;;14.13;4.50;;;;;;;;;;5051674;28;20040;-58
2021/03/13 05:02:20;;;;;;;10.43;3.70;;;;;;;;;;5069934;28;20455;-57
2021/03/13 05:04:45;;;;;;;14.33;4.00;;;;;;;;;;5069163;28;20028;-58
2021/03/13 05:07:10;;;;;;;22.07;4.47;;;;;;;;;;5051978;28;20036;-58
2021/03/13 05:09:36;;;;;;;11.33;4.03;;;;;;;;;;5069502;28;20349;-57
2021/03/13 05:12:01;;;;;;;16.77;5.60;;;;;;;;;;5069667;28;20033;-59
2021/03/13 05:14:27;;;;;;;22.60;5.00;;;;;;;;;;5051944;28;20329;-58
2021/03/13 05:16:52;;;;;;;10.20;3.15;;;;;;;;;;5051687;28;20369;-58
2021/03/13 05:19:18;;;;;;;15.33;3.07;;;;;;;;;;5071851;28;20036;-58
2021/03/13 05:21:43;;;;;;;12.53;5.03;;;;;;;;;;5054961;28;20078;-59
2021/03/13 05:24:09;;;;;;;20.00;4.93;;;;;;;;;;5074267;28;20182;-59
2021/03/13 05:26:34;;;;;;;15.33;4.83;;;;;;;;;;5076343;28;20456;-60
2021/03/13 05:28:59;;;;;;;20.60;5.27;;;;;;;;;;5073432;28;20428;-59
2021/03/13 05:31:25;;;;;;;11.27;4.67;;;;;;;;;;5073483;28;20020;-56
2021/03/13 05:33:50;;;;;;;17.87;4.57;;;;;;;;;;5052475;28;20488;-55
2021/03/13 05:36:15;;;;;;;12.70;3.37;;;;;;;;;;5052431;28;20520;-58
2021/03/13 05:38:41;;;;;;;8.73;3.67;;;;;;;;;;5070759;28;20040;-57
2021/03/13 05:41:06;;;;;;;14.83;3.10;;;;;;;;;;5072923;28;20033;-57
2021/03/13 05:43:33;;;;;;;9.27;3.50;;;;;;;;;;5072565;28;20052;-57
2021/03/13 05:46:00;;;;;;;11.03;2.50;;;;;;;;;;5073470;28;20076;-61
2021/03/13 05:48:26;;;;;;;11.87;2.43;;;;;;;;;;5052708;28;20349;-56
2021/03/13 05:50:53;;;;;;;9.67;3.10;;;;;;;;;;5072076;28;20036;-58
2021/03/13 05:53:18;;;;;;;25.85;3.10;;;;;;;;;;5072984;28;20257;-61
2021/03/13 05:56:14;;;;;;;4.88;1.60;;;;;;;;;;5108065;27;20416;-59
2021/03/13 05:58:39;;;;;;;6.90;1.40;;;;;;;;;;5107329;28;20115;-59
2021/03/13 06:01:05;;;;;;;5.17;0.93;;;;;;;;;;5070287;28;20471;-59
2021/03/13 06:03:34;;;;;;;10.65;1.17;;;;;;;;;;5089122;28;20131;-59
2021/03/13 06:06:00;;;;;;;4.28;0.80;;;;;;;;;;5088793;28;20028;-58
2021/03/13 06:08:26;;;;;;;3.83;0.85;;;;;;;;;;5088834;28;20043;-59
2021/03/13 06:10:51;;;;;;;1.30;0.57;;;;;;;;;;5096677;28;20451;-59
2021/03/13 06:13:17;;;;;;;1.63;0.80;;;;;;;;;;5107148;28;20210;-59
2021/03/13 06:15:44;;;;;;;3.03;0.80;;;;;;;;;;5106552;28;20028;-59
2021/03/13 06:18:09;;;;;;;5.53;0.75;;;;;;;;;;5106717;28;20031;-58
2021/03/13 06:20:36;;;;;;;4.10;0.97;;;;;;;;;;5107195;28;20375;-60
2021/03/13 06:23:03;;;;;;;2.85;1.42;;;;;;;;;;5107291;28;20081;-59
2021/03/13 06:25:29;;;;;;;3.22;0.80;;;;;;;;;;5107257;28;20114;-59
2021/03/13 06:28:04;;;;;;;3.83;0.68;;;;;;;;;;5104054;28;20118;-58
2021/03/13 06:30:30;;;;;;;1.83;0.80;;;;;;;;;;5107255;28;20024;-59
2021/03/13 06:32:55;;;;;;;3.38;0.90;;;;;;;;;;5105929;28;20024;-59
2021/03/13 06:35:23;;;;;;;6.03;1.37;;;;;;;;;;5107104;28;20042;-59
2021/03/13 06:37:48;;;;;;;1.38;0.70;;;;;;;;;;5106833;28;20024;-58
2021/03/13 06:40:33;;;;;;;2.40;0.80;;;;;;;;;;5088791;28;20023;-59
2021/03/13 06:42:59;;;;;;;5.03;0.98;;;;;;;;;;5106119;28;20034;-58
2021/03/13 06:45:24;;;;;;;5.15;0.85;;;;;;;;;;5088357;28;20425;-60
2021/03/13 06:47:50;;;;;;;4.27;0.90;;;;;;;;;;5106342;28;20021;-59
2021/03/13 06:50:16;;;;;;;6.32;0.90;;;;;;;;;;5104960;28;20047;-59
2021/03/13 06:52:42;;;;;;;3.40;1.17;;;;;;;;;;5110715;28;20420;-60
2021/03/13 06:55:14;;;;;;;9.63;1.10;;;;;;;;;;5108070;28;20095;-59
2021/03/13 06:57:40;;;;;;;8.30;1.55;;;;;;;;;;5101155;28;20043;-59
2021/03/13 07:00:05;;;;;;;2.03;0.83;;;;;;;;;;5106898;28;20023;-59
2021/03/13 07:02:31;;;;;;;1.98;1.20;;;;;;;;;;5086892;28;20035;-59
2021/03/13 07:05:09;;;;;;;5.07;1.53;;;;;;;;;;5106252;28;20034;-59
2021/03/13 07:07:35;;;;;;;6.60;1.65;;;;;;;;;;5098917;28;20139;-60
2021/03/13 07:10:02;;;;;;;4.75;1.23;;;;;;;;;;5093626;28;20100;-59
2021/03/13 07:12:30;;;;;;;19.85;2.17;;;;;;;;;;5093822;28;20039;-59
2021/03/13 07:14:57;;;;;;;6.55;1.38;;;;;;;;;;5076125;28;20158;-58
2021/03/13 07:17:25;;;;;;;12.73;1.83;;;;;;;;;;5076115;28;20483;-59
2021/03/13 07:19:51;;;;;;;18.98;2.28;;;;;;;;;;5094330;28;20247;-59
2021/03/13 07:22:16;;;;;;;15.32;3.17;;;;;;;;;;5094550;28;20484;-59
2021/03/13 07:24:46;;;;;;;12.10;1.80;;;;;;;;;;5093837;28;20039;-59
2021/03/13 07:27:12;;;;;;;8.25;1.50;;;;;;;;;;5094260;28;20380;-58
2021/03/13 07:29:41;;;;;;;13.73;2.40;;;;;;;;;;5093457;28;20085;-58
2021/03/13 07:32:14;;;;;;;9.18;2.03;;;;;;;;;;5075940;28;20256;-58
2021/03/13 07:34:40;;;;;;;17.58;2.60;;;;;;;;;;5093661;28;20162;-59
2021/03/13 07:37:07;;;;;;;9.82;2.53;;;;;;;;;;5075757;28;20491;-59
2021/03/13 07:39:38;;;;;;;14.73;2.90;;;;;;;;;;5075493;28;20386;-59
2021/03/13 07:42:09;;;;;;;18.50;3.33;;;;;;;;;;5094201;28;20043;-58
2021/03/13 07:44:35;;;;;;;15.02;1.77;;;;;;;;;;5075235;28;20135;-59
2021/03/13 07:47:01;;;;;;;10.07;2.63;;;;;;;;;;5093795;28;20107;-59
2021/03/13 07:49:26;;;;;;;11.70;2.25;;;;;;;;;;5093216;28;20476;-58
2021/03/13 07:51:52;;;;;;;12.37;1.77;;;;;;;;;;5093489;28;20035;-60
2021/03/13 07:54:17;;;;;;;11.50;1.67;;;;;;;;;;5092572;28;20543;-59
2021/03/13 07:56:43;;;;;;;15.17;3.10;;;;;;;;;;5074155;28;20789;-59
2021/03/13 07:59:10;;;;;;;15.93;1.95;;;;;;;;;;5074923;28;20067;-59
2021/03/13 08:01:45;;;;;;;14.18;2.40;;;;;;;;;;5074075;28;20375;-58
2021/03/13 08:04:30;;;;;;;20.45;3.00;;;;;;;;;;5052582;28;20039;-59
2021/03/13 08:06:59;;;;;;;13.18;4.00;;;;;;;;;;5092512;28;20020;-58
2021/03/13 08:09:25;;;;;;;13.48;3.33;;;;;;;;;;5056822;28;20035;-60
2021/03/13 08:11:51;;;;;;;22.88;3.20;;;;;;;;;;5075028;28;20032;-60
2021/03/13 08:14:30;;;;;;;12.03;3.23;;;;;;;;;;5073931;28;20128;-59
2021/03/13 08:17:05;;;;;;;16.42;3.10;;;;;;;;;;5093963;28;20028;-59
2021/03/13 08:19:40;;;;;;;22.50;4.35;;;;;;;;;;5107855;28;20032;-60
2021/03/13 08:22:13;;;;;;;11.85;2.85;;;;;;;;;;5093193;28;20035;-59
2021/03/13 08:24:49;;;;;;;20.10;3.58;;;;;;;;;;5057548;28;20039;-59
2021/03/13 08:27:16;;;;;;;15.75;2.67;;;;;;;;;;5090473;28;20069;-59
2021/03/13 08:29:54;;;;;;;23.13;4.07;;;;;;;;;;5091885;28;20090;-59
2021/03/13 08:32:38;;;;;;;17.63;3.83;;;;;;;;;;5073022;28;20051;-59
2021/03/13 08:35:07;;;;;;;24.25;3.88;;;;;;;;;;5090448;28;20028;-59
2021/03/13 08:37:45;;;;;;;15.32;2.97;;;;;;;;;;5092139;28;20077;-59
2021/03/13 08:40:20;;;;;;;30.27;4.40;;;;;;;;;;5074912;28;20031;-59
2021/03/13 08:42:45;;;;;;;24.23;4.05;;;;;;;;;;5073639;28;20020;-59
2021/03/13 08:45:12;;;;;;;19.63;3.70;;;;;;;;;;5092064;28;20059;-59
2021/03/13 08:47:43;;;;;;;24.65;3.50;;;;;;;;;;5092043;28;20051;-59
2021/03/13 08:50:09;;;;;;;23.30;3.22;;;;;;;;;;5092818;28;20039;-59
2021/03/13 08:52:34;;;;;;;21.40;3.97;;;;;;;;;;5091980;28;20025;-58
2021/03/13 08:54:59;;;;;;;23.43;4.33;;;;;;;;;;5092215;28;20058;-59
2021/03/13 08:57:25;;;;;;;18.10;3.33;;;;;;;;;;5092634;28;20111;-59
2021/03/13 08:59:53;;;;;;;15.93;3.00;;;;;;;;;;5091788;28;20028;-59
2021/03/13 09:02:21;;;;;;;18.70;2.63;;;;;;;;;;5074424;28;20066;-60
2021/03/13 09:04:47;;;;;;;21.45;3.08;;;;;;;;;;5073627;28;20480;-60
2021/03/13 09:07:13;;;;;;;20.52;3.42;;;;;;;;;;5094627;28;20027;-60
2021/03/13 09:09:39;;;;;;;17.73;2.65;;;;;;;;;;5086011;28;20028;-59
2021/03/13 09:12:07;;;;;;;22.35;3.58;;;;;;;;;;5082295;28;20044;-59
2021/03/13 09:14:33;;;;;;;21.83;4.05;;;;;;;;;;5092050;28;20036;-59
2021/03/13 09:17:06;;;;;;;26.30;3.88;;;;;;;;;;5092825;28;20387;-59
2021/03/13 09:19:33;;;;;;;29.80;4.13;;;;;;;;;;5092883;28;20064;-60
2021/03/13 09:21:58;;;;;;;;;;;;;;;;;;5075939;28;20056;-59
2021/03/13 09:24:25;;;;;;;29.77;3.90;;;;;;;;;;5057277;28;19954;-59
2021/03/13 09:26:54;;;;;;;34.83;4.15;;;;;;;;;;5092451;28;20028;-60
2021/03/13 09:29:29;;;;;;;25.92;4.30;;;;;;;;;;5074269;28;20337;-60
2021/03/13 09:31:58;;;;;;;22.08;4.15;;;;;;;;;;5073096;28;20164;-59
2021/03/13 09:34:24;;;;;;;29.30;5.18;;;;;;;;;;5092959;28;20028;-59
2021/03/13 09:36:49;;;;;;;18.77;3.78;;;;;;;;;;5092420;28;20480;-59
2021/03/13 09:39:25;;;;;;;21.60;3.77;;;;;;;;;;5072666;28;20032;-59
2021/03/13 09:42:01;;;;;;;16.80;2.90;;;;;;;;;;5072862;28;20050;-59
2021/03/13 09:44:55;;;;;;;28.83;3.95;;;;;;;;;;5102175;28;20028;-60
2021/03/13 09:47:33;;;;;;;34.20;6.18;;;;;;;;;;5056292;28;20024;-60
2021/03/13 09:50:00;;;;;;;39.67;10.18;;;;;;;;;;5091525;28;20032;-59
2021/03/13 09:52:25;;;;;;;42.45;6.68;;;;;;;;;;5092039;28;20544;-59
2021/03/13 09:54:58;;;;;;;31.60;5.17;;;;;;;;;;5092202;28;20089;-60
2021/03/13 09:57:25;;;;;;;20.70;4.63;;;;;;;;;;5095477;28;20092;-60
2021/03/13 09:59:50;;;;;;;18.20;4.03;;;;;;;;;;5092128;28;20050;-58
2021/03/13 10:02:17;;;;;;;36.30;6.53;;;;;;;;;;5092563;28;20090;-60
2021/03/13 10:04:42;;;;;;;;;;;;;;;;;;5091978;28;20067;-59
2021/03/13 10:07:07;;;;;;;29.47;6.07;;;;;;;;;;5092366;28;19912;-59
2021/03/13 10:09:33;;;;;;;30.87;4.57;;;;;;;;;;5089417;28;20145;-59
2021/03/13 10:12:02;;;;;;;29.00;6.50;;;;;;;;;;5089132;28;20129;-59
2021/03/13 10:14:28;;;;;;;50.25;6.40;;;;;;;;;;5091691;28;20032;-58
2021/03/13 10:17:00;;;;;;;42.90;6.13;;;;;;;;;;5090484;28;20129;-60
2021/03/13 10:19:41;;;;;;;29.42;4.80;;;;;;;;;;5090524;28;20063;-59
2021/03/13 10:22:08;;;;;;;22.40;5.00;;;;;;;;;;5073300;28;20028;-59
2021/03/13 10:24:55;;;;;;;38.17;8.77;;;;;;;;;;5056597;28;20090;-59
2021/03/13 10:27:20;;;;;;;45.13;9.68;;;;;;;;;;5091168;28;20042;-59
2021/03/13 10:29:54;;;;;;;40.70;9.93;;;;;;;;;;5092276;28;20484;-61
2021/03/13 10:32:27;;;;;;;30.75;6.00;;;;;;;;;;5075237;28;20032;-59
2021/03/13 10:35:06;;;;;;;29.35;5.40;;;;;;;;;;5093057;28;20032;-58
2021/03/13 10:37:50;;;;;;;28.95;5.78;;;;;;;;;;5092753;28;20118;-59
2021/03/13 10:40:34;;;;;;;36.22;5.93;;;;;;;;;;5091898;28;20031;-59
2021/03/13 10:43:15;;;;;;;28.88;5.55;;;;;;;;;;5094963;28;20120;-59
2021/03/13 10:45:41;;;;;;;31.33;6.22;;;;;;;;;;5076759;28;20484;-59
2021/03/13 10:48:08;;;;;;;29.95;6.63;;;;;;;;;;5095406;28;20043;-60
2021/03/13 10:50:37;;;;;;;25.83;5.30;;;;;;;;;;5077811;28;20028;-60
2021/03/13 10:53:22;;;;;;;31.67;5.65;;;;;;;;;;5076944;28;20032;-60
2021/03/13 10:55:51;;;;;;;19.05;3.90;;;;;;;;;;5063038;28;20041;-59
2021/03/13 10:58:21;;;;;;;31.77;4.53;;;;;;;;;;5055889;28;20087;-60
2021/03/13 11:00:46;;;;;;;23.48;4.40;;;;;;;;;;5055419;28;20507;-63
2021/03/13 11:03:11;;;;;;;20.87;4.53;;;;;;;;;;5056380;28;20025;-62
2021/03/13 11:05:37;;;;;;;23.00;5.40;;;;;;;;;;5054473;28;20120;-60
2021/03/13 11:08:02;;;;;;;41.07;5.50;;;;;;;;;;5055466;28;20474;-59
2021/03/13 11:10:28;;;;;;;22.80;3.70;;;;;;;;;;5056039;28;20318;-60
2021/03/13 11:12:54;;;;;;;29.80;4.50;;;;;;;;;;5056316;28;20021;-59
2021/03/13 11:15:19;;;;;;;25.33;3.90;;;;;;;;;;5055939;28;20033;-59
2021/03/13 11:17:44;;;;;;;22.33;3.80;;;;;;;;;;5056506;28;20401;-59
2021/03/13 11:20:10;;;;;;;24.73;4.67;;;;;;;;;;5059148;28;20036;-60
2021/03/13 11:22:35;;;;;;;20.45;4.53;;;;;;;;;;5061034;28;20067;-60
2021/03/13 11:25:01;;;;;;;17.83;4.47;;;;;;;;;;5059324;28;20450;-59
2021/03/13 11:27:26;;;;;;;11.57;2.60;;;;;;;;;;5053425;28;20061;-59
2021/03/13 11:29:51;;;;;;;22.00;3.77;;;;;;;;;;5053880;28;20124;-58
2021/03/13 11:32:17;;;;;;;19.30;3.67;;;;;;;;;;5054525;28;20108;-65
2021/03/13 11:34:42;;;;;;;22.83;3.67;;;;;;;;;;5052961;28;20045;-60
2021/03/13 11:37:08;;;;;;;18.20;3.37;;;;;;;;;;5052492;28;20398;-60
2021/03/13 11:39:33;;;;;;;18.30;3.00;;;;;;;;;;5052690;28;20041;-58
2021/03/13 11:41:58;;;;;;;17.00;3.43;;;;;;;;;;5055325;28;20041;-59
2021/03/13 11:44:23;;;;;;;16.07;3.33;;;;;;;;;;5054958;28;20380;-60
2021/03/13 11:46:49;;;;;;;19.67;3.33;;;;;;;;;;5053511;28;20025;-60
2021/03/13 11:49:14;;;;;;;17.00;3.10;;;;;;;;;;5054116;28;20040;-60
2021/03/13 11:51:40;;;;;;;13.17;3.87;;;;;;;;;;5054078;28;20458;-60
2021/03/13 11:54:05;;;;;;;19.47;3.57;;;;;;;;;;5052962;28;20059;-60
2021/03/13 11:56:30;;;;;;;17.47;2.47;;;;;;;;;;5077893;28;20048;-60
2021/03/13 11:58:56;;;;;;;13.93;2.90;;;;;;;;;;5074721;28;20054;-59
2021/03/13 12:01:21;;;;;;;10.87;2.53;;;;;;;;;;5093582;28;20028;-60
2021/03/13 12:03:46;;;;;;;12.00;3.43;;;;;;;;;;5093166;28;20462;-60
2021/03/13 12:06:12;;;;;;;17.97;4.20;;;;;;;;;;5093491;28;20058;-58
2021/03/13 12:08:37;;;;;;;13.80;2.83;;;;;;;;;;5093585;28;20098;-61
2021/03/13 12:11:02;;;;;;;13.93;3.10;;;;;;;;;;5093071;28;20448;-59
2021/03/13 12:13:28;;;;;;;9.87;2.00;;;;;;;;;;5093406;28;20127;-60
2021/03/13 12:15:53;;;;;;;16.47;2.70;;;;;;;;;;5074538;28;20024;-60
2021/03/13 12:18:19;;;;;;;14.90;3.70;;;;;;;;;;5058461;28;20036;-60
2021/03/13 12:20:44;;;;;;;12.60;2.67;;;;;;;;;;5093301;28;20028;-59
2021/03/13 12:23:10;;;;;;;19.42;3.08;;;;;;;;;;5075031;28;20028;-58
2021/03/13 12:25:35;;;;;;;15.77;2.80;;;;;;;;;;5093076;28;20039;-59
2021/03/13 12:28:00;;;;;;;12.23;3.43;;;;;;;;;;5093219;28;20035;-59
2021/03/13 12:30:26;;;;;;;16.00;2.37;;;;;;;;;;5093732;28;20050;-58
2021/03/13 12:32:51;;;;;;;19.17;3.87;;;;;;;;;;5091017;28;20100;-58
2021/03/13 12:35:17;;;;;;;12.68;2.35;;;;;;;;;;5075161;28;20706;-59
2021/03/13 12:37:42;;;;;;;18.57;5.37;;;;;;;;;;5074696;28;20089;-58
2021/03/13 12:40:08;;;;;;;11.73;2.50;;;;;;;;;;5092665;28;20020;-59
2021/03/13 12:42:34;;;;;;;11.07;3.13;;;;;;;;;;5092886;28;20036;-58
2021/03/13 12:44:59;;;;;;;11.48;2.90;;;;;;;;;;5092215;28;20093;-58
2021/03/13 12:47:25;;;;;;;8.67;1.73;;;;;;;;;;5092795;28;20111;-60
2021/03/13 12:49:50;;;;;;;6.27;1.60;;;;;;;;;;5074339;28;20020;-58
2021/03/13 12:52:16;;;;;;;7.90;1.58;;;;;;;;;;5092749;28;20067;-59
2021/03/13 12:54:41;;;;;;;8.03;2.47;;;;;;;;;;5074582;28;20065;-58
2021/03/13 12:57:07;;;;;;;16.03;4.13;;;;;;;;;;5092284;28;20054;-59
2021/03/13 12:59:32;;;;;;;6.43;1.27;;;;;;;;;;5092354;28;20036;-58
2021/03/13 13:01:58;;;;;;;9.53;2.23;;;;;;;;;;5091960;28;20375;-59
2021/03/13 13:04:23;;;;;;;18.83;2.77;;;;;;;;;;5092093;28;20024;-60
2021/03/13 13:06:49;;;;;;;8.25;1.92;;;;;;;;;;5092492;28;20035;-57
2021/03/13 13:09:14;;;;;;;10.73;3.17;;;;;;;;;;5091830;28;20050;-58
2021/03/13 13:11:39;;;;;;;16.33;4.07;;;;;;;;;;5092469;28;20020;-58
2021/03/13 13:14:06;;;;;;;26.53;5.83;;;;;;;;;;5073966;28;20032;-58
2021/03/13 13:16:31;;;;;;;27.07;5.50;;;;;;;;;;5074479;28;20058;-57
2021/03/13 13:18:57;;;;;;;29.83;6.68;;;;;;;;;;5091758;28;20028;-59
2021/03/13 13:21:22;;;;;;;20.13;4.53;;;;;;;;;;5092006;28;20042;-58
2021/03/13 13:23:47;;;;;;;9.07;2.20;;;;;;;;;;5092378;28;20463;-59
2021/03/13 13:26:13;;;;;;;17.30;2.23;;;;;;;;;;5091469;28;20040;-58
2021/03/13 13:28:38;;;;;;;18.00;1.87;;;;;;;;;;5074069;28;20020;-59
2021/03/13 13:31:04;;;;;;;8.23;2.50;;;;;;;;;;5091930;28;20070;-60
2021/03/13 13:33:29;;;;;;;8.33;1.67;;;;;;;;;;5073986;28;20541;-60
2021/03/13 13:35:55;;;;;;;5.43;1.70;;;;;;;;;;5073774;28;20043;-58
2021/03/13 13:38:21;;;;;;;12.38;2.33;;;;;;;;;;5074393;28;20032;-59
2021/03/13 13:40:47;;;;;;;9.17;2.83;;;;;;;;;;5092579;28;20040;-60
2021/03/13 13:43:12;;;;;;;14.95;4.53;;;;;;;;;;5074004;28;20039;-62
2021/03/13 13:45:38;;;;;;;13.90;4.20;;;;;;;;;;5092531;28;20196;-59
2021/03/13 13:48:04;;;;;;;14.70;4.50;;;;;;;;;;5091814;28;20067;-58
2021/03/13 13:50:29;;;;;;;12.18;3.35;;;;;;;;;;5080675;28;20268;-59
2021/03/13 13:52:55;;;;;;;9.43;2.43;;;;;;;;;;5092249;28;20486;-58
2021/03/13 13:55:21;;;;;;;8.32;2.95;;;;;;;;;;5091850;28;20123;-57
2021/03/13 13:57:46;;;;;;;14.63;4.03;;;;;;;;;;5092042;28;20062;-59
2021/03/13 14:00:14;;;;;;;14.95;3.40;;;;;;;;;;5091591;28;20518;-59
2021/03/13 14:02:39;;;;;;;9.43;2.20;;;;;;;;;;5092453;28;20050;-58
2021/03/13 14:05:05;;;;;;;9.67;2.80;;;;;;;;;;5091692;28;20757;-59
2021/03/13 14:07:31;;;;;;;13.63;3.35;;;;;;;;;;5074456;28;20036;-58
2021/03/13 14:09:56;;;;;;;11.57;2.80;;;;;;;;;;5092472;28;20054;-59
2021/03/13 14:12:21;;;;;;;11.97;2.47;;;;;;;;;;5091189;28;20488;-61
2021/03/13 14:14:47;;;;;;;11.73;2.83;;;;;;;;;;5056991;28;20096;-58
2021/03/13 14:17:12;;;;;;;8.37;3.20;;;;;;;;;;5093743;28;20433;-60
2021/03/13 14:19:37;;;;;;;8.70;3.10;;;;;;;;;;5095899;28;20409;-58
2021/03/13 14:22:03;;;;;;;14.90;4.57;;;;;;;;;;5094653;28;20012;-62
2021/03/13 14:24:28;;;;;;;8.80;3.17;;;;;;;;;;5095254;28;20400;-60
2021/03/13 14:26:54;;;;;;;9.00;1.73;;;;;;;;;;5077531;28;20040;-59
2021/03/13 14:29:21;;;;;;;13.33;2.83;;;;;;;;;;5094730;28;20352;-63
2021/03/13 14:31:50;;;;;;;15.77;3.73;;;;;;;;;;5095192;28;20047;-59
2021/03/13 14:34:16;;;;;;;11.50;2.10;;;;;;;;;;5094717;28;20661;-59
2021/03/13 14:36:43;;;;;;;7.15;1.65;;;;;;;;;;5077541;28;20348;-60